sensor_id;sensor_type;location;lat;lon;timestamp;pressure;altitude;pressure_sealevel;temperature;humidity
35151;BME280;55720;51.972;4.624;2023-03-13T00:01:41;99949.91;;;8.64;100.00
35151;BME280;55720;51.972;4.624;2023-03-13T00:04:07;99974.19;;;8.66;100.00
35151;BME280;55720;51.972;4.624;2023-03-13T00:06:35;99987.41;;;8.64;100.00
35151;BME280;55720;51.972;4.624;2023-03-13T00:09:02;100022.63;;;8.65;100.00
35151;BME280;55720;51.972;4.624;2023-03-13T00:11:28;100066.53;;;8.69;100.00
35151;BME280;55720;51.972;4.624;2023-03-13T00:13:58;100095.50;;;8.70;100.00
35151;BME280;55720;51.972;4.624;2023-03-13T00:16:23;100126.06;;;8.72;100.00
35151;BME280;55720;51.972;4.624;2023-03-13T00:18:54;100189.00;;;8.72;100.00
35151;BME280;55720;51.972;4.624;2023-03-13T00:21:22;100216.50;;;8.75;100.00
35151;BME280;55720;51.972;4.624;2023-03-13T00:23:48;100247.44;;;8.76;100.00
35151;BME280;55720;51.972;4.624;2023-03-13T00:26:16;100288.63;;;8.79;100.00
35151;BME280;55720;51.972;4.624;2023-03-13T00:28:42;100341.44;;;8.80;100.00
35151;BME280;55720;51.972;4.624;2023-03-13T00:31:10;100390.69;;;8.80;100.00
35151;BME280;55720;51.972;4.624;2023-03-13T00:33:37;100425.31;;;8.84;100.00
35151;BME280;55720;51.972;4.624;2023-03-13T00:36:24;100468.94;;;8.89;100.00
35151;BME280;55720;51.972;4.624;2023-03-13T00:38:53;100498.84;;;8.95;100.00
35151;BME280;55720;51.972;4.624;2023-03-13T00:41:24;100507.88;;;8.95;100.00
35151;BME280;55720;51.972;4.624;2023-03-13T00:43:53;100503.19;;;8.96;100.00
35151;BME280;55720;51.972;4.624;2023-03-13T00:46:20;100514.63;;;8.98;100.00
35151;BME280;55720;51.972;4.624;2023-03-13T00:48:47;100520.59;;;9.00;100.00
35151;BME280;55720;51.972;4.624;2023-03-13T00:51:13;100532.28;;;9.09;100.00
35151;BME280;55720;51.972;4.624;2023-03-13T00:53:40;100546.63;;;9.06;100.00
35151;BME280;55720;51.972;4.624;2023-03-13T00:56:08;100549.34;;;9.14;100.00
35151;BME280;55720;51.972;4.624;2023-03-13T00:58:36;100572.69;;;9.12;100.00
35151;BME280;55720;51.972;4.624;2023-03-13T01:03:49;100573.16;;;9.22;100.00
35151;BME280;55720;51.972;4.624;2023-03-13T01:06:18;100575.91;;;9.22;100.00
35151;BME280;55720;51.972;4.624;2023-03-13T01:08:44;100572.16;;;9.27;100.00
35151;BME280;55720;51.972;4.624;2023-03-13T01:11:15;100570.22;;;9.27;100.00
35151;BME280;55720;51.972;4.624;2023-03-13T01:13:41;100539.41;;;9.30;100.00
35151;BME280;55720;51.972;4.624;2023-03-13T01:16:10;100545.72;;;9.31;100.00
35151;BME280;55720;51.972;4.624;2023-03-13T01:18:37;100541.84;;;9.32;100.00
35151;BME280;55720;51.972;4.624;2023-03-13T01:21:04;100555.69;;;9.35;100.00
35151;BME280;55720;51.972;4.624;2023-03-13T01:23:30;100556.13;;;9.37;100.00
35151;BME280;55720;51.972;4.624;2023-03-13T01:25:56;100556.78;;;9.43;100.00
35151;BME280;55720;51.972;4.624;2023-03-13T01:28:22;100556.91;;;9.47;100.00
35151;BME280;55720;51.972;4.624;2023-03-13T01:30:48;100556.38;;;9.53;100.00
35151;BME280;55720;51.972;4.624;2023-03-13T01:33:14;100544.44;;;9.58;100.00
35151;BME280;55720;51.972;4.624;2023-03-13T01:35:40;100541.00;;;9.61;100.00
35151;BME280;55720;51.972;4.624;2023-03-13T01:38:05;100532.56;;;9.66;100.00
35151;BME280;55720;51.972;4.624;2023-03-13T01:40:31;100525.16;;;9.66;100.00
35151;BME280;55720;51.972;4.624;2023-03-13T01:42:59;100502.41;;;9.66;100.00
35151;BME280;55720;51.972;4.624;2023-03-13T01:46:00;100482.50;;;9.77;100.00
35151;BME280;55720;51.972;4.624;2023-03-13T01:51:08;100486.72;;;9.75;100.00
35151;BME280;55720;51.972;4.624;2023-03-13T01:53:34;100470.09;;;9.80;100.00
35151;BME280;55720;51.972;4.624;2023-03-13T01:56:04;100451.34;;;9.82;100.00
35151;BME280;55720;51.972;4.624;2023-03-13T01:58:31;100424.72;;;9.82;100.00
35151;BME280;55720;51.972;4.624;2023-03-13T02:00:57;100425.97;;;9.85;100.00
35151;BME280;55720;51.972;4.624;2023-03-13T02:03:24;100408.41;;;9.86;100.00
35151;BME280;55720;51.972;4.624;2023-03-13T02:05:52;100382.22;;;9.88;100.00
35151;BME280;55720;51.972;4.624;2023-03-13T02:08:20;100377.22;;;9.91;100.00
35151;BME280;55720;51.972;4.624;2023-03-13T02:11:00;100365.22;;;9.95;100.00
35151;BME280;55720;51.972;4.624;2023-03-13T02:13:28;100344.88;;;9.96;100.00
35151;BME280;55720;51.972;4.624;2023-03-13T02:15:54;100340.66;;;9.99;100.00
35151;BME280;55720;51.972;4.624;2023-03-13T02:18:20;100310.59;;;10.02;100.00
35151;BME280;55720;51.972;4.624;2023-03-13T02:20:46;100334.97;;;10.04;100.00
35151;BME280;55720;51.972;4.624;2023-03-13T02:23:55;100324.78;;;10.04;100.00
35151;BME280;55720;51.972;4.624;2023-03-13T02:26:37;100327.97;;;10.06;100.00
35151;BME280;55720;51.972;4.624;2023-03-13T02:29:03;100318.63;;;10.07;100.00
35151;BME280;55720;51.972;4.624;2023-03-13T02:31:29;100294.38;;;10.09;100.00
35151;BME280;55720;51.972;4.624;2023-03-13T02:33:58;100299.47;;;10.19;100.00
35151;BME280;55720;51.972;4.624;2023-03-13T02:36:26;100295.56;;;10.20;100.00
35151;BME280;55720;51.972;4.624;2023-03-13T02:38:59;100302.31;;;10.23;100.00
35151;BME280;55720;51.972;4.624;2023-03-13T02:41:27;100319.22;;;10.25;100.00
35151;BME280;55720;51.972;4.624;2023-03-13T02:43:53;100299.00;;;10.29;100.00
35151;BME280;55720;51.972;4.624;2023-03-13T02:46:20;100304.81;;;10.28;100.00
35151;BME280;55720;51.972;4.624;2023-03-13T02:48:48;100282.66;;;10.33;100.00
35151;BME280;55720;51.972;4.624;2023-03-13T02:51:31;100304.28;;;10.34;100.00
35151;BME280;55720;51.972;4.624;2023-03-13T02:54:06;100293.75;;;10.36;100.00
35151;BME280;55720;51.972;4.624;2023-03-13T02:56:33;100308.81;;;10.43;100.00
35151;BME280;55720;51.972;4.624;2023-03-13T02:59:00;100314.31;;;10.43;100.00
35151;BME280;55720;51.972;4.624;2023-03-13T03:01:25;100312.84;;;10.45;100.00
35151;BME280;55720;51.972;4.624;2023-03-13T03:03:51;100303.56;;;10.50;100.00
35151;BME280;55720;51.972;4.624;2023-03-13T03:06:16;100309.75;;;10.59;100.00
35151;BME280;55720;51.972;4.624;2023-03-13T03:08:42;100292.91;;;10.60;100.00
35151;BME280;55720;51.972;4.624;2023-03-13T03:11:08;100309.16;;;10.65;100.00
35151;BME280;55720;51.972;4.624;2023-03-13T03:13:34;100319.91;;;10.70;100.00
35151;BME280;55720;51.972;4.624;2023-03-13T03:16:08;100326.28;;;10.74;100.00
35151;BME280;55720;51.972;4.624;2023-03-13T03:18:35;100320.56;;;10.79;100.00
35151;BME280;55720;51.972;4.624;2023-03-13T03:21:01;100324.22;;;10.83;100.00
35151;BME280;55720;51.972;4.624;2023-03-13T03:23:29;100336.44;;;10.86;100.00
35151;BME280;55720;51.972;4.624;2023-03-13T03:25:54;100351.00;;;10.86;100.00
35151;BME280;55720;51.972;4.624;2023-03-13T03:28:19;100366.78;;;10.90;100.00
35151;BME280;55720;51.972;4.624;2023-03-13T03:30:45;100386.81;;;10.90;100.00
35151;BME280;55720;51.972;4.624;2023-03-13T03:33:10;100391.50;;;10.90;100.00
35151;BME280;55720;51.972;4.624;2023-03-13T03:35:35;100398.94;;;10.89;100.00
35151;BME280;55720;51.972;4.624;2023-03-13T03:38:03;100398.94;;;10.89;100.00
35151;BME280;55720;51.972;4.624;2023-03-13T03:40:29;100407.63;;;10.91;100.00
35151;BME280;55720;51.972;4.624;2023-03-13T03:42:54;100391.16;;;10.91;100.00
35151;BME280;55720;51.972;4.624;2023-03-13T03:45:20;100394.72;;;10.92;100.00
35151;BME280;55720;51.972;4.624;2023-03-13T03:47:45;100392.28;;;10.90;100.00
35151;BME280;55720;51.972;4.624;2023-03-13T03:50:10;100389.09;;;10.88;100.00
35151;BME280;55720;51.972;4.624;2023-03-13T03:52:37;100393.00;;;10.87;100.00
35151;BME280;55720;51.972;4.624;2023-03-13T03:55:03;100387.94;;;10.89;100.00
35151;BME280;55720;51.972;4.624;2023-03-13T03:57:28;100390.69;;;10.89;100.00
35151;BME280;55720;51.972;4.624;2023-03-13T03:59:54;100382.81;;;10.88;100.00
35151;BME280;55720;51.972;4.624;2023-03-13T04:02:19;100380.16;;;10.91;100.00
35151;BME280;55720;51.972;4.624;2023-03-13T04:04:45;100376.28;;;10.92;100.00
35151;BME280;55720;51.972;4.624;2023-03-13T04:07:10;100359.44;;;10.94;100.00
35151;BME280;55720;51.972;4.624;2023-03-13T04:09:35;100362.09;;;10.90;100.00
35151;BME280;55720;51.972;4.624;2023-03-13T04:12:01;100350.19;;;10.86;100.00
35151;BME280;55720;51.972;4.624;2023-03-13T04:14:26;100348.72;;;10.89;100.00
35151;BME280;55720;51.972;4.624;2023-03-13T04:16:52;100336.56;;;10.90;100.00
35151;BME280;55720;51.972;4.624;2023-03-13T04:19:17;100333.13;;;10.93;100.00
35151;BME280;55720;51.972;4.624;2023-03-13T04:21:42;100322.94;;;10.93;100.00
35151;BME280;55720;51.972;4.624;2023-03-13T04:24:08;100332.22;;;10.89;100.00
35151;BME280;55720;51.972;4.624;2023-03-13T04:26:33;100331.53;;;10.92;100.00
35151;BME280;55720;51.972;4.624;2023-03-13T04:28:59;100335.53;;;10.94;100.00
35151;BME280;55720;51.972;4.624;2023-03-13T04:31:24;100328.44;;;10.93;100.00
35151;BME280;55720;51.972;4.624;2023-03-13T04:33:52;100333.47;;;10.91;100.00
35151;BME280;55720;51.972;4.624;2023-03-13T04:36:18;100319.97;;;10.98;100.00
35151;BME280;55720;51.972;4.624;2023-03-13T04:38:43;100322.47;;;11.03;100.00
35151;BME280;55720;51.972;4.624;2023-03-13T04:41:08;100333.78;;;11.02;100.00
35151;BME280;55720;51.972;4.624;2023-03-13T04:43:34;100330.56;;;11.00;100.00
35151;BME280;55720;51.972;4.624;2023-03-13T04:45:59;100344.88;;;11.05;100.00
35151;BME280;55720;51.972;4.624;2023-03-13T04:48:24;100339.06;;;11.07;100.00
35151;BME280;55720;51.972;4.624;2023-03-13T04:50:50;100324.06;;;11.04;100.00
35151;BME280;55720;51.972;4.624;2023-03-13T04:53:15;100358.63;;;11.05;100.00
35151;BME280;55720;51.972;4.624;2023-03-13T04:55:41;100360.22;;;11.06;100.00
35151;BME280;55720;51.972;4.624;2023-03-13T04:58:06;100357.13;;;11.08;100.00
35151;BME280;55720;51.972;4.624;2023-03-13T05:00:31;100344.75;;;11.14;100.00
35151;BME280;55720;51.972;4.624;2023-03-13T05:02:57;100366.38;;;11.15;100.00
35151;BME280;55720;51.972;4.624;2023-03-13T05:05:22;100374.63;;;11.15;100.00
35151;BME280;55720;51.972;4.624;2023-03-13T05:07:47;100365.44;;;11.23;100.00
35151;BME280;55720;51.972;4.624;2023-03-13T05:10:13;100369.34;;;11.22;100.00
35151;BME280;55720;51.972;4.624;2023-03-13T05:12:39;100370.59;;;11.25;100.00
35151;BME280;55720;51.972;4.624;2023-03-13T05:15:04;100328.31;;;11.29;100.00
35151;BME280;55720;51.972;4.624;2023-03-13T05:17:30;100321.78;;;11.34;100.00
35151;BME280;55720;51.972;4.624;2023-03-13T05:19:56;100283.31;;;11.34;100.00
35151;BME280;55720;51.972;4.624;2023-03-13T05:22:21;100253.88;;;11.34;100.00
35151;BME280;55720;51.972;4.624;2023-03-13T05:24:47;100183.47;;;11.46;100.00
35151;BME280;55720;51.972;4.624;2023-03-13T05:27:12;100089.56;;;11.44;100.00
35151;BME280;55720;51.972;4.624;2023-03-13T05:29:38;100033.00;;;11.43;100.00
35151;BME280;55720;51.972;4.624;2023-03-13T05:32:04;99959.22;;;11.45;100.00
35151;BME280;55720;51.972;4.624;2023-03-13T05:34:29;99903.44;;;11.44;100.00
35151;BME280;55720;51.972;4.624;2023-03-13T05:36:54;99821.78;;;11.45;100.00
35151;BME280;55720;51.972;4.624;2023-03-13T05:39:20;99727.59;;;11.48;100.00
35151;BME280;55720;51.972;4.624;2023-03-13T05:41:45;99662.13;;;11.53;100.00
35151;BME280;55720;51.972;4.624;2023-03-13T05:44:10;99608.72;;;11.54;100.00
35151;BME280;55720;51.972;4.624;2023-03-13T05:46:36;99574.22;;;11.57;100.00
35151;BME280;55720;51.972;4.624;2023-03-13T05:49:01;99534.19;;;11.59;100.00
35151;BME280;55720;51.972;4.624;2023-03-13T05:51:27;99477.22;;;11.56;100.00
35151;BME280;55720;51.972;4.624;2023-03-13T05:53:52;99431.31;;;11.60;100.00
35151;BME280;55720;51.972;4.624;2023-03-13T05:56:17;99382.25;;;11.62;100.00
35151;BME280;55720;51.972;4.624;2023-03-13T05:58:43;99338.69;;;11.64;100.00
35151;BME280;55720;51.972;4.624;2023-03-13T06:01:10;99305.31;;;11.66;100.00
35151;BME280;55720;51.972;4.624;2023-03-13T06:03:36;99244.81;;;11.66;100.00
35151;BME280;55720;51.972;4.624;2023-03-13T06:06:01;99178.03;;;11.62;100.00
35151;BME280;55720;51.972;4.624;2023-03-13T06:08:27;99144.28;;;11.65;100.00
35151;BME280;55720;51.972;4.624;2023-03-13T06:10:53;99101.47;;;11.64;100.00
35151;BME280;55720;51.972;4.624;2023-03-13T06:13:18;99065.34;;;11.65;100.00
35151;BME280;55720;51.972;4.624;2023-03-13T06:15:50;99019.41;;;11.69;100.00
35151;BME280;55720;51.972;4.624;2023-03-13T06:18:16;98995.44;;;11.66;100.00
35151;BME280;55720;51.972;4.624;2023-03-13T06:20:42;98962.09;;;11.68;100.00
35151;BME280;55720;51.972;4.624;2023-03-13T06:23:07;98955.38;;;11.62;100.00
35151;BME280;55720;51.972;4.624;2023-03-13T06:25:33;98959.69;;;11.59;100.00
35151;BME280;55720;51.972;4.624;2023-03-13T06:28:01;98965.13;;;11.52;100.00
35151;BME280;55720;51.972;4.624;2023-03-13T06:30:26;98978.50;;;11.50;100.00
35151;BME280;55720;51.972;4.624;2023-03-13T06:32:52;98972.53;;;11.41;100.00
35151;BME280;55720;51.972;4.624;2023-03-13T06:35:17;99001.53;;;11.35;100.00
35151;BME280;55720;51.972;4.624;2023-03-13T06:37:42;98988.56;;;11.28;100.00
35151;BME280;55720;51.972;4.624;2023-03-13T06:40:09;99029.69;;;11.21;100.00
35151;BME280;55720;51.972;4.624;2023-03-13T06:42:34;99072.03;;;11.17;100.00
35151;BME280;55720;51.972;4.624;2023-03-13T06:45:00;99085.31;;;11.11;100.00
35151;BME280;55720;51.972;4.624;2023-03-13T06:47:30;99115.50;;;11.08;100.00
35151;BME280;55720;51.972;4.624;2023-03-13T06:49:55;99182.56;;;11.03;100.00
35151;BME280;55720;51.972;4.624;2023-03-13T06:52:20;99187.59;;;10.98;100.00
35151;BME280;55720;51.972;4.624;2023-03-13T06:54:46;99228.72;;;10.94;100.00
35151;BME280;55720;51.972;4.624;2023-03-13T06:57:11;99267.53;;;10.93;100.00
35151;BME280;55720;51.972;4.624;2023-03-13T06:59:37;99310.66;;;10.89;100.00
35151;BME280;55720;51.972;4.624;2023-03-13T07:02:03;99329.88;;;10.89;100.00
35151;BME280;55720;51.972;4.624;2023-03-13T07:04:28;99368.31;;;10.89;100.00
35151;BME280;55720;51.972;4.624;2023-03-13T07:06:54;99377.72;;;10.88;100.00
35151;BME280;55720;51.972;4.624;2023-03-13T07:09:19;99394.19;;;10.88;100.00
35151;BME280;55720;51.972;4.624;2023-03-13T07:11:44;99408.28;;;10.86;100.00
35151;BME280;55720;51.972;4.624;2023-03-13T07:14:10;99411.00;;;10.86;100.00
35151;BME280;55720;51.972;4.624;2023-03-13T07:16:35;99427.13;;;10.88;100.00
35151;BME280;55720;51.972;4.624;2023-03-13T07:19:01;99462.38;;;10.85;100.00
35151;BME280;55720;51.972;4.624;2023-03-13T07:21:26;99465.53;;;10.84;100.00
35151;BME280;55720;51.972;4.624;2023-03-13T07:23:51;99484.00;;;10.87;100.00
35151;BME280;55720;51.972;4.624;2023-03-13T07:26:17;99493.41;;;10.86;100.00
35151;BME280;55720;51.972;4.624;2023-03-13T07:28:42;99510.59;;;10.83;100.00
35151;BME280;55720;51.972;4.624;2023-03-13T07:31:13;99529.09;;;10.86;100.00
35151;BME280;55720;51.972;4.624;2023-03-13T07:33:39;99536.25;;;10.91;100.00
35151;BME280;55720;51.972;4.624;2023-03-13T07:36:05;99546.06;;;10.92;100.00
35151;BME280;55720;51.972;4.624;2023-03-13T07:38:31;99555.53;;;10.94;100.00
35151;BME280;55720;51.972;4.624;2023-03-13T07:40:57;99555.69;;;11.05;100.00
35151;BME280;55720;51.972;4.624;2023-03-13T07:43:23;99562.13;;;11.12;100.00
35151;BME280;55720;51.972;4.624;2023-03-13T07:46:00;99552.44;;;11.22;100.00
35151;BME280;55720;51.972;4.624;2023-03-13T07:48:32;99556.13;;;11.29;100.00
35151;BME280;55720;51.972;4.624;2023-03-13T07:50:58;99527.19;;;11.35;100.00
35151;BME280;55720;51.972;4.624;2023-03-13T07:53:24;99495.13;;;11.47;100.00
35151;BME280;55720;51.972;4.624;2023-03-13T07:55:58;99465.84;;;11.58;100.00
35151;BME280;55720;51.972;4.624;2023-03-13T07:58:26;99456.38;;;11.55;100.00
35151;BME280;55720;51.972;4.624;2023-03-13T08:00:52;99446.13;;;11.52;100.00
35151;BME280;55720;51.972;4.624;2023-03-13T08:03:17;99419.53;;;11.60;100.00
35151;BME280;55720;51.972;4.624;2023-03-13T08:05:43;99422.53;;;11.77;100.00
35151;BME280;55720;51.972;4.624;2023-03-13T08:08:09;99397.25;;;12.39;100.00
35151;BME280;55720;51.972;4.624;2023-03-13T08:10:34;99347.69;;;13.58;100.00
35151;BME280;55720;51.972;4.624;2023-03-13T08:13:00;99228.09;;;12.94;100.00
35151;BME280;55720;51.972;4.624;2023-03-13T08:15:25;99149.94;;;12.41;100.00
35151;BME280;55720;51.972;4.624;2023-03-13T08:17:53;99128.53;;;12.13;100.00
35151;BME280;55720;51.972;4.624;2023-03-13T08:20:18;99128.44;;;11.95;100.00
35151;BME280;55720;51.972;4.624;2023-03-13T08:22:45;99112.66;;;11.85;100.00
35151;BME280;55720;51.972;4.624;2023-03-13T08:25:16;99111.84;;;11.81;100.00
35151;BME280;55720;51.972;4.624;2023-03-13T08:27:42;99120.03;;;11.74;100.00
35151;BME280;55720;51.972;4.624;2023-03-13T08:30:08;99116.09;;;11.71;100.00
35151;BME280;55720;51.972;4.624;2023-03-13T08:32:35;99088.16;;;11.69;100.00
35151;BME280;55720;51.972;4.624;2023-03-13T08:35:01;99076.44;;;11.76;100.00
35151;BME280;55720;51.972;4.624;2023-03-13T08:37:26;99068.69;;;11.92;100.00
35151;BME280;55720;51.972;4.624;2023-03-13T08:39:52;99028.31;;;12.07;100.00
35151;BME280;55720;51.972;4.624;2023-03-13T08:42:20;99013.47;;;12.32;100.00
35151;BME280;55720;51.972;4.624;2023-03-13T08:44:46;98942.34;;;12.56;100.00
35151;BME280;55720;51.972;4.624;2023-03-13T08:47:11;98889.47;;;13.77;100.00
35151;BME280;55720;51.972;4.624;2023-03-13T08:49:36;98811.53;;;14.25;100.00
35151;BME280;55720;51.972;4.624;2023-03-13T08:52:03;98710.31;;;14.90;100.00
35151;BME280;55720;51.972;4.624;2023-03-13T08:54:29;98665.13;;;14.73;100.00
35151;BME280;55720;51.972;4.624;2023-03-13T08:56:55;98631.44;;;14.51;100.00
35151;BME280;55720;51.972;4.624;2023-03-13T08:59:20;98616.78;;;14.88;100.00
35151;BME280;55720;51.972;4.624;2023-03-13T09:01:46;98619.94;;;14.90;100.00
35151;BME280;55720;51.972;4.624;2023-03-13T09:04:11;98619.22;;;15.40;100.00
35151;BME280;55720;51.972;4.624;2023-03-13T09:06:37;98645.91;;;14.96;100.00
35151;BME280;55720;51.972;4.624;2023-03-13T09:09:04;98671.56;;;14.97;100.00
35151;BME280;55720;51.972;4.624;2023-03-13T09:11:30;98694.22;;;14.81;100.00
35151;BME280;55720;51.972;4.624;2023-03-13T09:13:56;98715.53;;;14.81;100.00
35151;BME280;55720;51.972;4.624;2023-03-13T09:16:25;98758.50;;;14.48;100.00
35151;BME280;55720;51.972;4.624;2023-03-13T09:18:51;98769.81;;;14.12;100.00
35151;BME280;55720;51.972;4.624;2023-03-13T09:21:19;98754.47;;;14.08;100.00
35151;BME280;55720;51.972;4.624;2023-03-13T09:23:45;98734.69;;;14.64;100.00
35151;BME280;55720;51.972;4.624;2023-03-13T09:26:12;98762.41;;;14.54;100.00
35151;BME280;55720;51.972;4.624;2023-03-13T09:28:37;98759.38;;;14.38;100.00
35151;BME280;55720;51.972;4.624;2023-03-13T09:31:35;98774.25;;;14.51;100.00
35151;BME280;55720;51.972;4.624;2023-03-13T09:34:02;98773.69;;;14.18;100.00
35151;BME280;55720;51.972;4.624;2023-03-13T09:36:28;98779.44;;;13.90;100.00
35151;BME280;55720;51.972;4.624;2023-03-13T09:38:56;98757.56;;;14.17;100.00
35151;BME280;55720;51.972;4.624;2023-03-13T09:41:35;98738.47;;;14.37;100.00
35151;BME280;55720;51.972;4.624;2023-03-13T09:49:37;98725.53;;;14.71;100.00
35151;BME280;55720;51.972;4.624;2023-03-13T09:52:17;98764.75;;;14.55;100.00
35151;BME280;55720;51.972;4.624;2023-03-13T09:54:48;98734.53;;;14.38;100.00
35151;BME280;55720;51.972;4.624;2023-03-13T09:57:32;98748.78;;;14.73;100.00
35151;BME280;55720;51.972;4.624;2023-03-13T10:00:05;98764.06;;;14.44;100.00
35151;BME280;55720;51.972;4.624;2023-03-13T10:02:37;98762.19;;;14.30;100.00
35151;BME280;55720;51.972;4.624;2023-03-13T10:07:28;98740.47;;;14.32;100.00
35151;BME280;55720;51.972;4.624;2023-03-13T10:09:53;98720.16;;;14.91;100.00
35151;BME280;55720;51.972;4.624;2023-03-13T10:12:26;98735.50;;;15.29;100.00
35151;BME280;55720;51.972;4.624;2023-03-13T10:15:45;98744.91;;;15.65;100.00
35151;BME280;55720;51.972;4.624;2023-03-13T10:17:45;98772.06;;;15.44;100.00
35151;BME280;55720;51.972;4.624;2023-03-13T10:20:31;98779.94;;;15.11;100.00
35151;BME280;55720;51.972;4.624;2023-03-13T10:23:14;98793.63;;;14.88;100.00
35151;BME280;55720;51.972;4.624;2023-03-13T10:25:40;98787.94;;;15.02;100.00
35151;BME280;55720;51.972;4.624;2023-03-13T10:28:14;98782.81;;;15.35;100.00
35151;BME280;55720;51.972;4.624;2023-03-13T10:30:48;98816.72;;;15.08;100.00
35151;BME280;55720;51.972;4.624;2023-03-13T10:33:27;98838.41;;;15.10;100.00
35151;BME280;55720;51.972;4.624;2023-03-13T10:36:06;98826.56;;;15.43;100.00
35151;BME280;55720;51.972;4.624;2023-03-13T10:38:34;98842.09;;;15.67;100.00
35151;BME280;55720;51.972;4.624;2023-03-13T10:41:25;98855.41;;;16.06;100.00
35151;BME280;55720;51.972;4.624;2023-03-13T10:43:54;98880.00;;;16.01;100.00
35151;BME280;55720;51.972;4.624;2023-03-13T10:46:31;98884.41;;;15.98;100.00
35151;BME280;55720;51.972;4.624;2023-03-13T10:49:00;98904.59;;;15.95;100.00
35151;BME280;55720;51.972;4.624;2023-03-13T10:51:36;98908.78;;;16.07;100.00
35151;BME280;55720;51.972;4.624;2023-03-13T10:54:14;98910.78;;;16.06;100.00
35151;BME280;55720;51.972;4.624;2023-03-13T10:56:40;98915.88;;;16.11;100.00
35151;BME280;55720;51.972;4.624;2023-03-13T10:59:17;98908.16;;;16.26;100.00
35151;BME280;55720;51.972;4.624;2023-03-13T11:01:46;98905.59;;;16.65;100.00
35151;BME280;55720;51.972;4.624;2023-03-13T11:04:38;98918.66;;;16.92;100.00
35151;BME280;55720;51.972;4.624;2023-03-13T11:07:09;98952.75;;;16.62;100.00
35151;BME280;55720;51.972;4.624;2023-03-13T11:09:38;98943.59;;;16.92;100.00
35151;BME280;55720;51.972;4.624;2023-03-13T11:12:15;98939.09;;;17.25;100.00
35151;BME280;55720;51.972;4.624;2023-03-13T11:14:43;98978.22;;;16.80;100.00
35151;BME280;55720;51.972;4.624;2023-03-13T11:20:05;99015.25;;;16.66;100.00
35151;BME280;55720;51.972;4.624;2023-03-13T11:25:40;99070.91;;;16.45;100.00
35151;BME280;55720;51.972;4.624;2023-03-13T11:40:54;99173.22;;;16.25;100.00
35151;BME280;55720;51.972;4.624;2023-03-13T11:50:04;99226.38;;;15.48;100.00
35151;BME280;55720;51.972;4.624;2023-03-13T11:52:57;99214.53;;;15.54;100.00
35151;BME280;55720;51.972;4.624;2023-03-13T11:58:20;99223.59;;;16.10;100.00
35151;BME280;55720;51.972;4.624;2023-03-13T12:05:56;99196.19;;;16.22;100.00
35151;BME280;55720;51.972;4.624;2023-03-13T12:11:03;99219.00;;;16.78;100.00
35151;BME280;55720;51.972;4.624;2023-03-13T12:13:39;99208.28;;;17.14;100.00
35151;BME280;55720;51.972;4.624;2023-03-13T12:16:11;99260.06;;;16.87;100.00
35151;BME280;55720;51.972;4.624;2023-03-13T12:18:40;99335.19;;;16.58;100.00
35151;BME280;55720;51.972;4.624;2023-03-13T12:21:27;99408.19;;;16.89;100.00
35151;BME280;55720;51.972;4.624;2023-03-13T12:27:00;99467.56;;;17.40;100.00
35151;BME280;55720;51.972;4.624;2023-03-13T12:29:47;99493.47;;;16.71;100.00
35151;BME280;55720;51.972;4.624;2023-03-13T12:32:55;99519.84;;;16.10;100.00
35151;BME280;55720;51.972;4.624;2023-03-13T12:35:29;99515.22;;;15.75;100.00
35151;BME280;55720;51.972;4.624;2023-03-13T12:43:46;99488.63;;;16.82;100.00
35151;BME280;55720;51.972;4.624;2023-03-13T12:48:56;99482.81;;;16.62;100.00
35151;BME280;55720;51.972;4.624;2023-03-13T12:59:58;99478.03;;;15.83;100.00
35151;BME280;55720;51.972;4.624;2023-03-13T13:02:29;99478.06;;;15.76;100.00
35151;BME280;55720;51.972;4.624;2023-03-13T13:04:57;99464.97;;;15.91;100.00
35151;BME280;55720;51.972;4.624;2023-03-13T13:07:26;99474.88;;;15.74;100.00
35151;BME280;55720;51.972;4.624;2023-03-13T13:12:40;99471.03;;;15.11;100.00
35151;BME280;55720;51.972;4.624;2023-03-13T13:15:22;99483.28;;;15.03;100.00
35151;BME280;55720;51.972;4.624;2023-03-13T13:20:44;99458.38;;;15.14;100.00
35151;BME280;55720;51.972;4.624;2023-03-13T13:23:24;99422.00;;;15.44;100.00
35151;BME280;55720;51.972;4.624;2023-03-13T13:25:54;99443.19;;;15.96;100.00
35151;BME280;55720;51.972;4.624;2023-03-13T13:28:27;99434.78;;;16.14;100.00
35151;BME280;55720;51.972;4.624;2023-03-13T13:30:56;99438.25;;;16.32;100.00
35151;BME280;55720;51.972;4.624;2023-03-13T13:38:36;99422.38;;;15.53;100.00
35151;BME280;55720;51.972;4.624;2023-03-13T13:43:42;99423.41;;;15.98;100.00
35151;BME280;55720;51.972;4.624;2023-03-13T13:46:29;99421.50;;;15.81;100.00
35151;BME280;55720;51.972;4.624;2023-03-13T13:51:41;99408.53;;;15.56;100.00
35151;BME280;55720;51.972;4.624;2023-03-13T13:54:32;99396.66;;;15.59;100.00
35151;BME280;55720;51.972;4.624;2023-03-13T13:57:06;99390.34;;;15.48;100.00
35151;BME280;55720;51.972;4.624;2023-03-13T13:59:44;99403.81;;;15.53;100.00
35151;BME280;55720;51.972;4.624;2023-03-13T14:02:15;99384.09;;;15.41;100.00
35151;BME280;55720;51.972;4.624;2023-03-13T14:04:59;99381.31;;;15.37;100.00
35151;BME280;55720;51.972;4.624;2023-03-13T14:12:59;99358.28;;;15.75;100.00
35151;BME280;55720;51.972;4.624;2023-03-13T14:17:53;99356.00;;;15.46;100.00
35151;BME280;55720;51.972;4.624;2023-03-13T14:20:37;99350.47;;;15.42;100.00
35151;BME280;55720;51.972;4.624;2023-03-13T14:23:06;99356.44;;;15.37;100.00
35151;BME280;55720;51.972;4.624;2023-03-13T14:25:46;99346.94;;;15.31;100.00
35151;BME280;55720;51.972;4.624;2023-03-13T14:28:17;99369.06;;;15.35;100.00
35151;BME280;55720;51.972;4.624;2023-03-13T14:30:44;99360.38;;;15.36;100.00